Time;durP1;ratioP1;P1;durP2;ratioP2;P2;SDS_P1;SDS_P2;PMS_P1;PMS_P2;Temp;Humidity;BMP_temperature;BMP_pressure;BME280_temperature;BME280_humidity;BME280_pressure;Samples;Min_cycle;Max_cycle;Signal;HPM_P1;HPM_P2
2021/01/16 00:00:28;;;;;;;73.97;41.17;;;38.40;2201.60;;;;;;4995916;28;20022;-77
2021/01/16 00:02:54;;;;;;;71.60;41.23;;;38.40;2201.60;;;;;;4979532;28;20154;-75
2021/01/16 00:05:23;;;;;;;68.23;37.13;;;38.40;2201.60;;;;;;5002097;28;20484;-74
2021/01/16 00:07:59;;;;;;;66.97;36.97;;;38.40;2201.60;;;;;;4988929;28;20132;-75
2021/01/16 00:10:25;;;;;;;108.57;60.60;;;38.40;2201.60;;;;;;5004460;28;20028;-75
2021/01/16 00:12:52;;;;;;;68.37;40.10;;;38.40;2201.60;;;;;;4986561;28;20030;-75
2021/01/16 00:15:18;;;;;;;71.97;37.07;;;38.50;2201.60;;;;;;5005991;28;20057;-74
2021/01/16 00:17:44;;;;;;;77.67;40.53;;;38.50;2201.60;;;;;;5007070;28;20479;-75
2021/01/16 00:20:11;;;;;;;80.13;42.93;;;38.50;2201.60;;;;;;5003918;28;20026;-75
2021/01/16 00:22:48;;;;;;;75.83;40.27;;;38.50;2201.60;;;;;;4995668;28;20053;-75
2021/01/16 00:25:14;;;;;;;189.60;108.73;;;38.40;2201.60;;;;;;4979960;28;20026;-75
2021/01/16 00:27:41;;;;;;;131.07;66.70;;;38.50;2201.60;;;;;;4978019;28;20034;-77
2021/01/16 00:30:09;;;;;;;74.53;37.63;;;38.60;2201.60;;;;;;4995502;28;20026;-75
2021/01/16 00:32:36;;;;;;;82.73;42.60;;;38.50;2201.60;;;;;;4989032;28;20045;-75
2021/01/16 00:35:11;;;;;;;75.73;40.27;;;38.60;2201.60;;;;;;4987977;28;20030;-76
2021/01/16 00:37:38;;;;;;;91.07;47.93;;;38.60;2201.60;;;;;;4982372;28;20031;-75
2021/01/16 00:40:09;;;;;;;118.40;59.47;;;38.60;2201.60;;;;;;5005361;28;20022;-77
2021/01/16 00:42:50;;;;;;;119.73;61.70;;;38.60;2201.60;;;;;;4999412;28;20022;-77
2021/01/16 00:45:36;;;;;;;128.03;64.40;;;38.70;2201.60;;;;;;4975810;28;20023;-75
2021/01/16 00:48:14;;;;;;;105.30;53.43;;;38.70;2201.60;;;;;;4935389;29;20055;-75
2021/01/16 00:50:41;;;;;;;109.50;55.63;;;38.60;2201.60;;;;;;4918914;29;20087;-74
2021/01/16 00:53:07;;;;;;;119.97;61.33;;;38.70;2201.60;;;;;;4934669;29;20040;-74
2021/01/16 00:55:35;;;;;;;113.57;56.87;;;38.70;2201.60;;;;;;4937978;29;20037;-77
2021/01/16 00:58:09;;;;;;;89.33;45.67;;;38.70;2201.60;;;;;;4940530;29;20036;-75
2021/01/16 01:00:36;;;;;;;71.07;38.30;;;38.70;2201.60;;;;;;4938059;29;20091;-76
2021/01/16 01:03:02;;;;;;;70.60;37.07;;;38.70;2201.60;;;;;;4938654;29;20043;-75
2021/01/16 01:05:28;;;;;;;72.57;40.00;;;38.70;2201.60;;;;;;4923137;29;20064;-75
2021/01/16 01:07:54;;;;;;;80.70;43.20;;;38.60;2201.60;;;;;;4937179;29;20489;-76
2021/01/16 01:10:40;;;;;;;75.77;39.67;;;38.60;2201.60;;;;;;4938283;29;20032;-76
2021/01/16 01:13:05;;;;;;;74.37;40.83;;;38.60;2201.60;;;;;;4946907;29;20032;-80
2021/01/16 01:15:31;;;;;;;65.40;34.37;;;38.60;2201.60;;;;;;4953903;29;20042;-79
2021/01/16 01:17:59;;;;;;;61.40;33.87;;;38.60;2201.60;;;;;;4960936;28;20023;-80
2021/01/16 01:20:26;;;;;;;62.00;31.97;;;38.60;2201.60;;;;;;5017955;28;20045;-79
2021/01/16 01:22:53;;;;;;;51.13;29.40;;;38.90;2201.60;;;;;;5001509;28;20040;-79
2021/01/16 01:25:21;;;;;;;52.77;29.03;;;38.80;2201.60;;;;;;5019017;28;20390;-79
2021/01/16 01:27:55;;;;;;;68.67;33.30;;;38.70;2201.60;;;;;;5001561;28;20041;-80
2021/01/16 01:30:23;;;;;;;73.57;36.10;;;38.80;2201.60;;;;;;5003432;28;20026;-79
2021/01/16 01:32:49;;;;;;;64.93;34.27;;;38.70;2201.60;;;;;;4998197;28;20026;-79
2021/01/16 01:35:17;;;;;;;73.10;39.00;;;38.70;2201.60;;;;;;5012047;28;20030;-77
2021/01/16 01:37:46;;;;;;;94.93;46.13;;;38.70;2201.60;;;;;;5016588;28;20513;-75
2021/01/16 01:40:14;;;;;;;97.23;47.27;;;38.70;2201.60;;;;;;4986087;28;20113;-75
2021/01/16 01:42:40;;;;;;;88.00;44.10;;;38.70;2201.60;;;;;;4998535;28;20114;-78
2021/01/16 01:45:10;;;;;;;81.13;41.07;;;38.70;2201.60;;;;;;4995017;28;20061;-77
2021/01/16 01:47:39;;;;;;;81.73;41.27;;;38.80;2201.60;;;;;;4988811;28;20050;-76
2021/01/16 01:50:07;;;;;;;79.37;40.60;;;38.70;2201.60;;;;;;4980990;28;20032;-74
2021/01/16 01:52:34;;;;;;;79.23;39.70;;;38.70;2201.60;;;;;;5003719;28;20022;-80
2021/01/16 01:55:04;;;;;;;97.27;51.00;;;38.80;2201.60;;;;;;4994973;28;20047;-78
2021/01/16 01:57:33;;;;;;;83.77;45.47;;;38.80;2201.60;;;;;;5013717;28;20023;-79
2021/01/16 02:00:03;;;;;;;81.53;41.33;;;38.80;2201.60;;;;;;5011666;28;20034;-77
2021/01/16 02:02:34;;;;;;;79.13;40.93;;;38.80;2201.60;;;;;;5014144;28;20042;-79
2021/01/16 02:05:02;;;;;;;79.77;41.60;;;38.80;2201.60;;;;;;5015923;28;20018;-78
2021/01/16 02:07:38;;;;;;;74.70;39.30;;;38.90;2201.60;;;;;;4997782;28;20026;-79
2021/01/16 02:10:23;;;;;;;81.83;42.43;;;38.90;2201.60;;;;;;4997059;28;20031;-77
2021/01/16 02:12:51;;;;;;;81.60;41.73;;;38.90;2201.60;;;;;;5001021;28;20371;-78
2021/01/16 02:15:48;;;;;;;85.43;44.90;;;38.90;2201.60;;;;;;5011476;28;20651;-78
2021/01/16 02:18:30;;;;;;;95.73;50.67;;;39.00;2201.60;;;;;;5029198;28;20034;-77
2021/01/16 02:20:59;;;;;;;85.17;44.03;;;39.00;2201.60;;;;;;5021029;28;20490;-79
2021/01/16 02:23:28;;;;;;;90.93;44.93;;;39.00;2201.60;;;;;;4999651;28;20034;-77
2021/01/16 02:26:23;;;;;;;77.93;42.10;;;39.00;2201.60;;;;;;5020964;28;20040;-77
2021/01/16 02:28:52;;;;;;;79.93;41.80;;;39.00;2201.60;;;;;;5018534;28;20030;-80
2021/01/16 02:31:18;;;;;;;78.27;41.03;;;39.10;2201.60;;;;;;5017546;28;20382;-77
2021/01/16 02:33:46;;;;;;;81.10;42.50;;;39.30;2201.60;;;;;;5019007;28;20042;-77
2021/01/16 02:36:40;;;;;;;86.57;45.00;;;39.30;2201.60;;;;;;5020355;28;20125;-77
2021/01/16 02:39:28;;;;;;;93.03;45.78;;;39.30;2201.60;;;;;;5001358;28;20029;-77
2021/01/16 02:42:19;;;;;;;109.67;54.07;;;39.20;2201.60;;;;;;5022392;28;20022;-79
2021/01/16 02:45:03;;;;;;;99.73;48.97;;;39.20;2201.60;;;;;;5002742;28;20026;-79
2021/01/16 02:47:40;;;;;;;93.22;46.00;;;39.20;2201.60;;;;;;5018583;28;20049;-80
2021/01/16 02:50:08;;;;;;;83.20;44.67;;;39.20;2201.60;;;;;;5002967;28;20034;-77
2021/01/16 02:52:45;;;;;;;85.47;40.37;;;39.20;2201.60;;;;;;5018961;28;20018;-77
2021/01/16 02:55:11;;;;;;;84.93;41.87;;;39.10;2201.60;;;;;;5000845;28;20169;-77
2021/01/16 02:57:38;;;;;;;80.87;41.17;;;39.10;2201.60;;;;;;5020443;28;20463;-77
2021/01/16 03:00:13;;;;;;;88.57;41.00;;;39.10;2201.60;;;;;;5007169;28;20030;-76
2021/01/16 03:02:39;;;;;;;84.97;40.97;;;39.10;2201.60;;;;;;5023276;28;20125;-80
2021/01/16 03:05:05;;;;;;;71.40;35.87;;;39.20;2201.60;;;;;;5022526;28;20439;-79
2021/01/16 03:07:32;;;;;;;69.90;37.13;;;39.10;2201.60;;;;;;5005598;28;20030;-80
2021/01/16 03:10:06;;;;;;;66.23;32.10;;;39.00;2201.60;;;;;;5006564;28;20034;-80
2021/01/16 03:12:32;;;;;;;62.80;32.60;;;39.00;2201.60;;;;;;5025727;28;20022;-77
2021/01/16 03:15:08;;;;;;;60.67;29.63;;;39.20;2201.60;;;;;;5007569;28;20065;-79
2021/01/16 03:17:46;;;;;;;50.87;26.83;;;39.10;2201.60;;;;;;5006890;28;20041;-77
2021/01/16 03:20:18;;;;;;;54.23;27.87;;;39.10;2201.60;;;;;;5006874;28;20045;-77
2021/01/16 03:22:44;;;;;;;54.87;27.77;;;39.10;2201.60;;;;;;5004082;28;20025;-77
2021/01/16 03:25:11;;;;;;;55.03;30.00;;;39.00;2201.60;;;;;;5003057;28;20068;-77
2021/01/16 03:27:37;;;;;;;57.13;26.93;;;39.00;2201.60;;;;;;5024117;28;20037;-76
2021/01/16 03:30:04;;;;;;;52.10;26.40;;;39.00;2201.60;;;;;;4994525;28;20054;-76
2021/01/16 03:32:29;;;;;;;49.70;25.73;;;38.80;2201.60;;;;;;4995118;28;20027;-79
2021/01/16 03:34:55;;;;;;;46.97;24.90;;;39.00;2201.60;;;;;;4995922;28;20069;-77
2021/01/16 03:37:22;;;;;;;42.37;23.80;;;39.00;2201.60;;;;;;4994191;28;20010;-80
2021/01/16 03:39:48;;;;;;;40.80;23.17;;;39.00;2201.60;;;;;;5012806;28;20082;-80
2021/01/16 03:42:14;;;;;;;43.37;22.80;;;38.70;2201.60;;;;;;4994748;28;20050;-79
2021/01/16 03:44:40;;;;;;;41.37;21.57;;;38.90;2201.60;;;;;;4994212;28;20050;-77
2021/01/16 03:47:06;;;;;;;40.30;20.87;;;38.90;2201.60;;;;;;4988712;28;20476;-80
2021/01/16 03:49:32;;;;;;;37.27;20.70;;;38.90;2201.60;;;;;;4991364;28;20038;-78
2021/01/16 03:51:58;;;;;;;40.20;22.10;;;39.00;2201.60;;;;;;4987168;28;20037;-79
2021/01/16 03:54:24;;;;;;;41.33;21.83;;;39.10;2201.60;;;;;;5005148;28;20113;-77
2021/01/16 03:56:50;;;;;;;46.07;23.77;;;39.10;2201.60;;;;;;4990321;28;20011;-76
2021/01/16 03:59:16;;;;;;;38.57;21.43;;;39.10;2201.60;;;;;;4989160;28;20056;-79
2021/01/16 04:01:43;;;;;;;39.57;21.30;;;39.10;2201.60;;;;;;5007011;28;20058;-77
2021/01/16 04:04:11;;;;;;;35.80;19.33;;;39.20;2201.60;;;;;;4988474;28;20030;-78
2021/01/16 04:06:36;;;;;;;37.57;19.37;;;39.30;2201.60;;;;;;5012409;28;20022;-80
2021/01/16 04:09:04;;;;;;;43.23;22.53;;;39.30;2201.60;;;;;;4996193;28;20094;-80
2021/01/16 04:11:30;;;;;;;39.17;20.60;;;64.00;2201.60;;;;;;4996289;28;20034;-80
2021/01/16 04:13:56;;;;;;;39.20;21.17;;;64.10;2201.60;;;;;;4996239;28;20104;-77
2021/01/16 04:16:26;;;;;;;40.53;21.27;;;64.10;2201.60;;;;;;5012296;28;20042;-77
2021/01/16 04:18:52;;;;;;;37.93;19.83;;;64.10;2201.60;;;;;;4991279;28;20065;-79
2021/01/16 04:21:18;;;;;;;36.73;20.87;;;64.00;2201.60;;;;;;5022872;28;20064;-76
2021/01/16 04:23:43;;;;;;;34.60;19.43;;;64.00;2201.60;;;;;;5023920;28;20026;-76
2021/01/16 04:26:09;;;;;;;34.47;19.03;;;64.10;2201.60;;;;;;5004919;28;20029;-77
2021/01/16 04:28:35;;;;;;;36.73;20.13;;;64.10;2201.60;;;;;;5005270;28;20034;-77
2021/01/16 04:31:01;;;;;;;36.73;20.97;;;64.20;2201.60;;;;;;5001380;28;20030;-76
2021/01/16 04:33:30;;;;;;;40.43;22.80;;;64.20;2201.60;;;;;;5023125;28;20100;-78
2021/01/16 04:35:56;;;;;;;56.40;28.47;;;64.30;2201.60;;;;;;5013514;28;20116;-78
2021/01/16 04:38:22;;;;;;;55.87;27.63;;;64.30;2201.60;;;;;;5033810;28;20049;-81
2021/01/16 04:40:48;;;;;;;48.57;24.03;;;64.30;2201.60;;;;;;5033877;28;20014;-78
2021/01/16 04:43:14;;;;;;;306.73;122.90;;;64.30;2201.60;;;;;;5014486;28;20030;-81
2021/01/16 04:45:41;;;;;;;264.73;110.63;;;64.20;2201.60;;;;;;5014811;28;20056;-78
2021/01/16 04:48:09;;;;;;;116.60;43.57;;;64.20;2201.60;;;;;;5015508;28;20126;-79
2021/01/16 04:50:42;;;;;;;105.03;47.60;;;64.20;2201.60;;;;;;5011316;28;20022;-77
2021/01/16 04:53:09;;;;;;;71.65;32.10;;;64.20;2201.60;;;;;;5020172;28;20030;-81
2021/01/16 04:55:37;;;;;;;79.70;32.50;;;64.30;2201.60;;;;;;5003524;28;20029;-77
2021/01/16 04:58:08;;;;;;;90.30;37.40;;;64.30;2201.60;;;;;;5001763;28;20179;-77
2021/01/16 05:00:40;;;;;;;99.53;44.23;;;64.30;2201.60;;;;;;5005287;28;20030;-77
2021/01/16 05:03:09;;;;;;;71.23;33.53;;;64.30;2201.60;;;;;;5021195;28;20038;-77
2021/01/16 05:05:38;;;;;;;56.30;28.63;;;64.40;2201.60;;;;;;5022382;28;20457;-77
2021/01/16 05:08:05;;;;;;;45.73;23.93;;;64.30;2201.60;;;;;;5021088;28;20552;-77
2021/01/16 05:10:40;;;;;;;41.53;23.03;;;64.40;2201.60;;;;;;5021839;28;20033;-77
2021/01/16 05:13:11;;;;;;;76.80;40.67;;;64.30;2201.60;;;;;;5002111;28;20026;-76
2021/01/16 05:15:40;;;;;;;117.60;61.63;;;64.30;2201.60;;;;;;5004029;28;20021;-80
2021/01/16 05:18:11;;;;;;;84.83;45.90;;;64.30;2201.60;;;;;;5003183;28;20058;-76
2021/01/16 05:20:40;;;;;;;57.73;31.33;;;64.30;2201.60;;;;;;5004702;28;20394;-77
2021/01/16 05:23:13;;;;;;;54.83;31.20;;;64.30;2201.60;;;;;;5000612;28;20112;-76
2021/01/16 05:25:43;;;;;;;50.60;29.97;;;64.30;2201.60;;;;;;5018746;28;20025;-76
2021/01/16 05:28:10;;;;;;;53.73;29.33;;;64.30;2201.60;;;;;;5001707;28;20413;-77
2021/01/16 05:31:03;;;;;;;53.40;26.63;;;64.20;2201.60;;;;;;5000805;28;20025;-76
2021/01/16 05:33:35;;;;;;;55.87;29.83;;;64.30;2201.60;;;;;;5021439;28;20498;-76
2021/01/16 05:36:07;;;;;;;56.27;30.23;;;64.40;2201.60;;;;;;5019133;28;20100;-77
2021/01/16 05:38:39;;;;;;;40.73;23.20;;;64.40;2201.60;;;;;;5001765;28;20030;-76
2021/01/16 05:41:10;;;;;;;46.63;25.40;;;64.40;2201.60;;;;;;5018027;28;20483;-76
2021/01/16 05:43:38;;;;;;;49.83;28.00;;;64.40;2201.60;;;;;;5018621;28;20022;-76
2021/01/16 05:46:08;;;;;;;55.77;31.07;;;64.40;2201.60;;;;;;5021014;28;20022;-77
2021/01/16 05:48:35;;;;;;;63.33;34.23;;;64.50;2201.60;;;;;;5021392;28;20117;-76
2021/01/16 05:51:02;;;;;;;52.20;28.30;;;64.50;2201.60;;;;;;5021151;28;20022;-77
2021/01/16 05:53:29;;;;;;;47.13;26.60;;;64.60;2201.60;;;;;;5016477;28;20026;-76
2021/01/16 05:55:58;;;;;;;50.27;26.53;;;64.40;2201.60;;;;;;4999092;28;20046;-77
2021/01/16 05:58:32;;;;;;;45.77;24.83;;;64.30;2201.60;;;;;;5018954;28;20026;-77
2021/01/16 06:01:07;;;;;;;60.00;29.33;;;64.40;2201.60;;;;;;5017170;28;20037;-77
2021/01/16 06:03:38;;;;;;;65.87;33.73;;;64.30;2201.60;;;;;;5003944;28;20037;-78
2021/01/16 06:06:10;;;;;;;61.27;31.70;;;64.20;2201.60;;;;;;5022881;28;20026;-77
2021/01/16 06:08:55;;;;;;;67.17;32.20;;;64.30;2201.60;;;;;;5018858;28;20056;-76
2021/01/16 06:11:22;;;;;;;71.97;34.17;;;64.20;2201.60;;;;;;5021048;28;20024;-77
2021/01/16 06:13:50;;;;;;;62.63;32.60;;;64.20;2201.60;;;;;;4998627;28;20489;-79
2021/01/16 06:16:18;;;;;;;58.23;29.23;;;64.20;2201.60;;;;;;5001885;28;20029;-79
2021/01/16 06:18:48;;;;;;;46.67;25.00;;;64.20;2201.60;;;;;;5005018;28;20120;-77
2021/01/16 06:21:29;;;;;;;47.97;24.43;;;64.10;2201.60;;;;;;5020360;28;20026;-76
2021/01/16 06:23:57;;;;;;;53.33;28.27;;;64.20;2201.60;;;;;;5000665;28;20026;-77
2021/01/16 06:26:23;;;;;;;75.13;31.83;;;64.20;2201.60;;;;;;5016724;28;20057;-76
2021/01/16 06:28:53;;;;;;;64.67;30.63;;;39.20;2201.60;;;;;;5001615;28;20042;-80
2021/01/16 06:31:34;;;;;;;75.50;36.80;;;64.20;2201.60;;;;;;5018526;28;20424;-77
2021/01/16 06:34:05;;;;;;;83.60;41.03;;;64.20;2201.60;;;;;;5005555;28;20034;-76
2021/01/16 06:36:34;;;;;;;130.27;56.27;;;64.20;2201.60;;;;;;5022384;28;20045;-76
2021/01/16 06:39:10;;;;;;;219.13;96.17;;;64.20;2201.60;;;;;;5027340;28;20544;-80
2021/01/16 06:41:38;;;;;;;400.33;205.63;;;64.20;2201.60;;;;;;5004038;28;20057;-77
2021/01/16 06:44:16;;;;;;;384.83;201.40;;;64.10;2201.60;;;;;;5021433;28;20037;-76
2021/01/16 06:46:46;;;;;;;340.03;178.90;;;64.10;2201.60;;;;;;5021274;28;20481;-76
2021/01/16 06:49:27;;;;;;;230.57;96.93;;;64.10;2201.60;;;;;;5007879;28;20049;-76
2021/01/16 06:51:57;;;;;;;177.87;79.87;;;64.00;2201.60;;;;;;5004061;28;20437;-77
2021/01/16 06:54:30;;;;;;;151.23;72.27;;;64.10;2201.60;;;;;;5025363;28;20022;-77
2021/01/16 06:57:05;;;;;;;145.50;68.90;;;64.10;2201.60;;;;;;5021833;28;20022;-76
2021/01/16 06:59:33;;;;;;;136.97;66.93;;;64.10;2201.60;;;;;;5005922;28;20026;-77
2021/01/16 07:01:59;;;;;;;166.67;77.60;;;64.00;2201.60;;;;;;5003736;28;20046;-81
2021/01/16 07:04:29;;;;;;;225.13;101.33;;;39.30;2201.60;;;;;;5009029;28;20112;-79
2021/01/16 07:06:55;;;;;;;190.33;88.97;;;39.30;2201.60;;;;;;5024982;28;20026;-79
2021/01/16 07:09:23;;;;;;;144.60;72.23;;;39.30;2201.60;;;;;;5025900;28;20033;-80
2021/01/16 07:11:52;;;;;;;139.37;70.53;;;39.20;2201.60;;;;;;5007966;28;20044;-79
2021/01/16 07:14:19;;;;;;;149.93;76.60;;;39.20;2201.60;;;;;;5022177;28;20018;-82
2021/01/16 07:16:46;;;;;;;106.33;51.93;;;39.10;2201.60;;;;;;5002637;28;20030;-79
2021/01/16 07:19:22;;;;;;;88.10;42.10;;;39.10;2201.60;;;;;;5005931;28;20038;-79
2021/01/16 07:21:49;;;;;;;82.73;37.43;;;39.00;2201.60;;;;;;5004024;28;20026;-79
2021/01/16 07:24:17;;;;;;;67.03;34.87;;;38.90;2201.60;;;;;;5009661;28;20038;-79
2021/01/16 07:26:50;;;;;;;59.17;30.60;;;38.70;2201.60;;;;;;5021958;28;20021;-79
2021/01/16 07:29:17;;;;;;;56.92;29.23;;;38.60;2201.60;;;;;;5008631;28;20034;-79
2021/01/16 07:31:45;;;;;;;53.00;26.57;;;38.40;2201.60;;;;;;5004706;28;20029;-79
2021/01/16 07:34:12;;;;;;;46.13;24.17;;;13.70;2201.60;;;;;;5013325;28;20482;-81
2021/01/16 07:36:39;;;;;;;49.03;25.30;;;13.70;2201.60;;;;;;5003660;28;20472;-76
2021/01/16 07:39:08;;;;;;;49.57;25.67;;;13.70;2201.60;;;;;;5025378;28;20491;-76
2021/01/16 07:41:35;;;;;;;141.00;67.90;;;13.60;2201.60;;;;;;5003561;28;20117;-77
2021/01/16 07:44:04;;;;;;;62.83;32.53;;;13.50;2201.60;;;;;;5003894;28;20450;-77
2021/01/16 07:46:31;;;;;;;94.17;43.53;;;13.30;2201.60;;;;;;5020006;28;20427;-76
2021/01/16 07:49:01;;;;;;;53.33;27.37;;;13.20;2201.60;;;;;;5021151;28;20387;-77
2021/01/16 07:51:36;;;;;;;111.27;38.10;;;13.20;2201.60;;;;;;5008196;28;20113;-76
2021/01/16 07:54:07;;;;;;;241.17;84.73;;;13.10;2201.60;;;;;;5006897;28;20095;-77
2021/01/16 07:56:41;;;;;;;52.97;27.03;;;13.20;2201.60;;;;;;5006292;28;20026;-77
2021/01/16 07:59:17;;;;;;;268.43;109.90;;;13.20;2201.60;;;;;;5002665;28;20379;-76
2021/01/16 08:02:12;;;;;;;82.27;33.07;;;13.20;2201.60;;;;;;4999012;28;20050;-76
2021/01/16 08:04:41;;;;;;;65.07;30.40;;;13.10;2201.60;;;;;;4989992;28;20484;-78
2021/01/16 08:07:09;;;;;;;192.67;90.40;;;13.10;2201.60;;;;;;4999790;28;20041;-76
2021/01/16 08:09:54;;;;;;;60.43;28.53;;;13.20;2201.60;;;;;;5003494;28;20116;-77
2021/01/16 08:12:23;;;;;;;89.90;41.40;;;13.20;2201.60;;;;;;5003515;28;20178;-80
2021/01/16 08:15:01;;;;;;;65.27;29.17;;;13.10;2201.60;;;;;;5010801;28;20050;-81
2021/01/16 08:17:34;;;;;;;77.20;36.87;;;13.00;2201.60;;;;;;4998061;28;20030;-81
2021/01/16 08:20:27;;;;;;;86.47;46.33;;;0.00;2201.60;;;;;;5012622;28;20022;-77
2021/01/16 08:22:58;;;;;;;63.13;33.70;;;0.10;2201.60;;;;;;5011446;28;20264;-78
2021/01/16 08:25:28;;;;;;;60.43;31.90;;;0.10;2201.60;;;;;;5013748;28;20054;-80
2021/01/16 08:27:56;;;;;;;122.00;53.57;;;0.10;2201.60;;;;;;5011348;28;20017;-77
2021/01/16 08:30:27;;;;;;;61.73;33.13;;;0.00;2201.60;;;;;;5011476;28;20030;-77
2021/01/16 08:32:58;;;;;;;65.77;34.87;;;12.90;2201.60;;;;;;5014515;28;20035;-80
2021/01/16 08:35:36;;;;;;;60.77;31.37;;;12.90;2201.60;;;;;;5013339;28;20045;-82
2021/01/16 08:38:17;;;;;;;72.17;33.07;;;12.90;2201.60;;;;;;5011984;28;20483;-80
2021/01/16 08:41:08;;;;;;;86.97;38.00;;;13.00;2201.60;;;;;;5011217;28;20036;-78
2021/01/16 08:43:50;;;;;;;81.33;37.43;;;13.00;2201.60;;;;;;5012341;28;20019;-80
2021/01/16 08:46:36;;;;;;;97.63;44.53;;;13.00;2201.60;;;;;;5009428;28;20023;-81
2021/01/16 08:49:09;;;;;;;51.07;25.03;;;12.90;2201.60;;;;;;5012869;28;20019;-80
2021/01/16 08:51:39;;;;;;;74.05;38.28;;;13.00;2201.60;;;;;;5013088;28;20019;-77
2021/01/16 08:54:06;;;;;;;61.67;31.27;;;12.90;2201.60;;;;;;5012463;28;20057;-79
2021/01/16 08:56:32;;;;;;;35.67;20.33;;;12.90;2201.60;;;;;;5007690;28;20426;-76
2021/01/16 08:58:59;;;;;;;59.23;30.83;;;0.00;2201.60;;;;;;5006005;28;20086;-77
2021/01/16 09:01:26;;;;;;;61.20;27.73;;;0.30;2201.60;;;;;;5010587;28;20056;-77
2021/01/16 09:04:17;;;;;;;47.83;25.27;;;26.40;2048.00;;;;;;5026275;28;20061;-76
2021/01/16 09:06:43;;;;;;;42.40;23.57;;;26.50;1996.80;;;;;;5011901;28;20030;-77
2021/01/16 09:09:10;;;;;;;55.37;29.13;;;26.20;2048.00;;;;;;5007777;28;20069;-80
2021/01/16 09:11:37;;;;;;;40.80;23.13;;;25.80;2073.60;;;;;;5011385;28;20042;-79
2021/01/16 09:14:03;;;;;;;38.00;21.50;;;26.30;2099.20;;;;;;5013200;28;20029;-77
2021/01/16 09:16:35;;;;;;;47.87;27.17;;;0.80;2124.80;;;;;;5030899;28;20022;-81
2021/01/16 09:19:01;;;;;;;239.70;99.17;;;0.70;2150.40;;;;;;5019055;28;20037;-76
2021/01/16 09:21:27;;;;;;;100.13;54.10;;;0.70;2150.40;;;;;;4991287;28;20026;-79
2021/01/16 09:23:54;;;;;;;54.53;27.43;;;0.80;2176.00;;;;;;4994475;28;20081;-77
2021/01/16 09:26:21;;;;;;;100.00;40.50;;;25.60;2124.80;;;;;;4989824;28;20029;-76
2021/01/16 09:28:55;;;;;;;44.80;22.83;;;25.60;2150.40;;;;;;4987342;28;20049;-76
2021/01/16 09:31:31;;;;;;;89.27;35.73;;;25.80;2124.80;;;;;;4988095;28;20046;-77
2021/01/16 09:34:17;;;;;;;57.33;25.10;;;25.90;2099.20;;;;;;4995825;28;20010;-80
2021/01/16 09:36:48;;;;;;;35.10;19.73;;;26.10;2099.20;;;;;;4992941;28;20034;-79
2021/01/16 09:39:28;;;;;;;48.80;25.10;;;26.10;2073.60;;;;;;4986896;28;20080;-76
2021/01/16 09:41:59;;;;;;;32.90;16.57;;;26.10;2073.60;;;;;;5003180;28;20033;-75
2021/01/16 09:44:44;;;;;;;58.63;26.30;;;26.10;2048.00;;;;;;4987560;28;20026;-75
2021/01/16 09:47:25;;;;;;;35.73;19.13;;;26.20;2048.00;;;;;;5004947;28;20054;-75
2021/01/16 09:49:51;;;;;;;64.90;27.63;;;26.30;2022.40;;;;;;5001013;28;20022;-75
2021/01/16 09:52:20;;;;;;;84.77;41.83;;;26.20;2048.00;;;;;;4986663;28;20084;-75
2021/01/16 09:54:47;;;;;;;68.80;34.73;;;26.40;2048.00;;;;;;5011097;28;20109;-75
2021/01/16 09:57:37;;;;;;;59.10;30.03;;;51.30;2048.00;;;;;;5001109;28;20056;-76
2021/01/16 10:00:08;;;;;;;61.67;25.53;;;51.20;2048.00;;;;;;5011413;28;20034;-77
2021/01/16 10:02:34;;;;;;;60.10;27.53;;;51.20;2022.40;;;;;;5002998;28;20050;-77
2021/01/16 10:05:02;;;;;;;77.33;30.87;;;51.70;1996.80;;;;;;4996829;28;20035;-75
2021/01/16 10:07:42;;;;;;;48.10;21.87;;;102.90;1715.20;;;;;;4994023;28;20046;-76
2021/01/16 10:10:19;;;;;;;53.13;26.17;;;77.70;1792.00;;;;;;4997351;28;20106;-77
2021/01/16 10:12:46;;;;;;;42.07;23.53;;;102.90;1715.20;;;;;;4981107;28;20003;-76
2021/01/16 10:15:19;;;;;;;35.73;18.73;;;77.30;1817.60;;;;;;4995995;28;20027;-77
2021/01/16 10:18:08;;;;;;;32.53;18.10;;;102.90;1715.20;;;;;;5007206;28;20041;-77
2021/01/16 10:20:34;;;;;;;44.97;23.40;;;102.50;1689.60;;;;;;4997381;28;20042;-76
2021/01/16 10:23:28;;;;;;;51.00;25.10;;;77.30;1792.00;;;;;;5001456;28;20038;-77
2021/01/16 10:26:25;;;;;;;64.28;31.42;;;76.80;1868.80;;;;;;4993667;28;20033;-77
2021/01/16 10:29:13;;;;;;;41.27;21.13;;;76.80;1868.80;;;;;;4982197;28;20027;-78
2021/01/16 10:31:40;;;;;;;59.50;27.47;;;52.00;1843.20;;;;;;4966732;29;20015;-77
2021/01/16 10:34:12;;;;;;;55.63;26.77;;;77.10;1817.60;;;;;;4964019;29;20057;-74
2021/01/16 10:36:40;;;;;;;103.47;48.60;;;128.20;1638.40;;;;;;4968504;29;20507;-78
2021/01/16 10:39:16;;;;;;;197.57;76.00;;;128.40;1612.80;;;;;;4941281;29;20020;-78
2021/01/16 10:41:46;;;;;;;55.67;26.00;;;102.60;1664.00;;;;;;4954628;29;20145;-77
2021/01/16 10:44:20;;;;;;;190.10;66.30;;;77.40;1689.60;;;;;;4959939;29;20056;-76
2021/01/16 10:46:54;;;;;;;183.60;56.67;;;102.60;1664.00;;;;;;4966203;28;20044;-75
2021/01/16 10:49:25;;;;;;;189.73;58.77;;;77.50;1689.60;;;;;;4946648;29;20039;-73
2021/01/16 10:51:52;;;;;;;94.40;34.77;;;76.90;1740.80;;;;;;4955659;29;20473;-75
2021/01/16 10:54:19;;;;;;;77.87;31.30;;;51.90;1792.00;;;;;;4940772;29;20042;-76
2021/01/16 10:57:08;;;;;;;142.20;45.83;;;51.60;1843.20;;;;;;4938728;29;20040;-76
2021/01/16 10:59:36;;;;;;;71.30;28.77;;;51.60;1868.80;;;;;;4938139;29;20034;-75
2021/01/16 11:02:36;;;;;;;42.80;18.80;;;51.70;1868.80;;;;;;4959287;28;20101;-76
2021/01/16 11:05:22;;;;;;;88.17;33.87;;;51.60;1868.80;;;;;;4973608;28;20027;-75
2021/01/16 11:07:50;;;;;;;57.10;26.13;;;51.60;1868.80;;;;;;4973862;28;20194;-75
2021/01/16 11:10:28;;;;;;;125.53;54.20;;;51.40;1868.80;;;;;;4974720;28;20046;-75
2021/01/16 11:12:54;;;;;;;40.37;18.63;;;51.30;1920.00;;;;;;4974364;28;20050;-75
2021/01/16 11:15:30;;;;;;;40.57;19.13;;;51.20;1868.80;;;;;;4974916;28;20039;-75
2021/01/16 11:17:58;;;;;;;46.93;21.43;;;26.40;1843.20;;;;;;4975677;28;20046;-76
2021/01/16 11:20:28;;;;;;;40.87;19.73;;;26.40;1920.00;;;;;;4975778;28;20030;-74
2021/01/16 11:23:12;;;;;;;63.53;29.77;;;51.20;1868.80;;;;;;4977604;28;20034;-74
2021/01/16 11:25:46;;;;;;;75.25;33.28;;;51.20;1920.00;;;;;;4979871;28;20037;-78
2021/01/16 11:28:26;;;;;;;47.33;24.40;;;51.20;1920.00;;;;;;4981201;28;20086;-79
2021/01/16 11:31:23;;;;;;;55.93;27.50;;;26.50;1894.40;;;;;;4977567;28;20023;-75
2021/01/16 11:34:08;;;;;;;38.23;20.07;;;26.50;1894.40;;;;;;4976576;28;20077;-74
2021/01/16 11:37:00;;;;;;;36.33;18.10;;;26.50;1868.80;;;;;;4979165;28;20034;-75
2021/01/16 11:39:42;;;;;;;39.70;20.90;;;26.40;1894.40;;;;;;4978187;28;20101;-74
2021/01/16 11:42:09;;;;;;;39.10;20.70;;;26.40;1868.80;;;;;;4980676;28;20029;-79
2021/01/16 11:44:51;;;;;;;39.50;21.80;;;26.50;1894.40;;;;;;4977907;28;20026;-74
2021/01/16 11:47:17;;;;;;;111.67;63.57;;;26.50;1868.80;;;;;;4982030;28;20152;-77
2021/01/16 11:49:45;;;;;;;63.67;37.20;;;26.50;1868.80;;;;;;4991739;28;20106;-79
2021/01/16 11:52:12;;;;;;;49.93;25.80;;;26.50;1894.40;;;;;;4992729;28;20026;-80
2021/01/16 11:54:38;;;;;;;53.87;32.83;;;26.40;1894.40;;;;;;4991253;28;20065;-81
2021/01/16 11:57:13;;;;;;;110.53;62.63;;;26.30;1868.80;;;;;;4984356;28;20030;-76
2021/01/16 11:59:41;;;;;;;137.30;78.30;;;26.30;1894.40;;;;;;4985558;28;20349;-83
2021/01/16 12:02:18;;;;;;;127.93;66.53;;;26.20;1920.00;;;;;;4990898;28;20400;-75
2021/01/16 12:04:46;;;;;;;145.23;88.87;;;26.10;1894.40;;;;;;4996317;28;20056;-75
2021/01/16 12:07:13;;;;;;;152.80;86.10;;;26.10;1894.40;;;;;;4996809;28;20031;-76
2021/01/16 12:09:43;;;;;;;210.43;129.60;;;26.10;1894.40;;;;;;4996004;28;20615;-75
2021/01/16 12:12:13;;;;;;;102.07;63.33;;;26.20;1920.00;;;;;;4995761;28;20038;-75
2021/01/16 12:14:41;;;;;;;130.83;76.33;;;26.30;1868.80;;;;;;4997726;28;20066;-75
2021/01/16 12:17:08;;;;;;;65.73;28.67;;;26.20;1868.80;;;;;;4995123;28;20360;-74
2021/01/16 12:19:35;;;;;;;39.40;19.53;;;26.30;1894.40;;;;;;4995463;28;20449;-75
2021/01/16 12:22:09;;;;;;;33.97;17.87;;;26.30;1868.80;;;;;;4996297;28;20037;-76
2021/01/16 12:24:38;;;;;;;39.43;19.37;;;26.30;1868.80;;;;;;4997187;28;20030;-75
2021/01/16 12:27:07;;;;;;;57.63;29.83;;;26.20;1868.80;;;;;;4994046;28;20025;-75